Time;durP1;ratioP1;P1;durP2;ratioP2;P2;SDS_P1;SDS_P2;PMS_P1;PMS_P2;Temp;Humidity;BMP_temperature;BMP_pressure;BME280_temperature;BME280_humidity;BME280_pressure;Samples;Min_cycle;Max_cycle;Signal;HPM_P1;HPM_P2
2022/08/01 00:01:58;;;;;;;2.40;2.10;;;25.40;56.30;24.50;101078.00;;;;5085839;28;20044;-71
2022/08/01 00:04:45;;;;;;;3.08;2.35;;;25.40;56.40;24.50;101077.00;;;;5072114;28;20055;-71
2022/08/01 00:07:31;;;;;;;2.13;1.85;;;25.40;56.50;24.50;101080.00;;;;5091078;28;20044;-71
2022/08/01 00:10:17;;;;;;;3.28;1.80;;;25.40;56.50;24.50;101085.00;;;;5072860;28;20039;-71
2022/08/01 00:13:03;;;;;;;2.42;1.88;;;25.40;56.40;24.50;101092.00;;;;5072530;28;20440;-71
2022/08/01 00:15:49;;;;;;;2.70;2.08;;;25.40;56.30;24.50;101095.00;;;;5086820;28;20032;-71
2022/08/01 00:18:35;;;;;;;4.20;2.25;;;25.40;56.40;24.40;101090.00;;;;5086801;28;20058;-71
2022/08/01 00:21:22;;;;;;;2.72;2.22;;;25.40;56.30;24.50;101090.00;;;;5083710;28;20040;-71
2022/08/01 00:24:08;;;;;;;1.77;1.60;;;25.30;56.50;24.50;101088.00;;;;5091237;28;20413;-71
2022/08/01 00:26:54;;;;;;;3.25;2.30;;;25.40;56.40;24.50;101090.00;;;;5083434;28;20044;-71
2022/08/01 00:29:40;;;;;;;2.03;1.83;;;25.40;56.30;24.50;101089.00;;;;5087320;28;20039;-71
2022/08/01 00:32:26;;;;;;;3.00;2.10;;;25.30;56.90;24.50;101086.00;;;;5087001;28;20044;-71
2022/08/01 00:35:13;;;;;;;3.22;1.85;;;25.40;56.20;24.40;101101.00;;;;5085263;28;20028;-71
2022/08/01 00:37:59;;;;;;;2.83;2.07;;;25.40;56.30;24.50;101102.00;;;;5082702;28;20614;-71
2022/08/01 00:40:45;;;;;;;3.28;2.22;;;25.40;56.10;24.40;101105.00;;;;5085281;28;20283;-71
2022/08/01 00:43:31;;;;;;;5.85;2.20;;;25.30;56.10;24.40;101104.00;;;;5083405;28;20040;-71
2022/08/01 00:46:17;;;;;;;2.97;1.92;;;25.40;56.20;24.40;101104.00;;;;5071222;28;20036;-71
2022/08/01 00:49:03;;;;;;;2.30;1.83;;;25.30;56.10;24.40;101101.00;;;;5074937;28;20036;-71
2022/08/01 00:51:49;;;;;;;2.10;1.83;;;25.30;56.00;24.40;101096.00;;;;5069014;28;20058;-71
2022/08/01 00:54:35;;;;;;;2.30;1.80;;;25.40;56.00;24.40;101090.00;;;;5086891;28;20096;-71
2022/08/01 00:57:21;;;;;;;2.78;1.83;;;25.40;56.60;24.40;101107.00;;;;5072205;28;20047;-71
2022/08/01 01:00:08;;;;;;;2.67;1.98;;;25.40;55.90;24.40;101100.00;;;;5057536;28;20477;-71
2022/08/01 01:02:54;;;;;;;3.05;1.83;;;25.30;55.70;24.40;101101.00;;;;5085632;28;20071;-71
2022/08/01 01:06:31;;;;;;;2.08;1.88;;;25.40;55.80;24.40;101111.00;;;;5080658;28;20094;-71
2022/08/01 01:10:00;;;;;;;2.65;1.63;;;25.30;55.80;24.40;101107.00;;;;5061442;28;20051;-71
2022/08/01 01:13:02;;;;;;;2.13;1.58;;;25.30;55.80;24.40;101105.00;;;;5089279;28;20059;-71
2022/08/01 01:16:14;;;;;;;2.33;1.90;;;25.30;55.60;24.40;101102.00;;;;5076566;28;20039;-71
2022/08/01 01:19:02;;;;;;;2.35;1.48;;;25.30;55.70;24.40;101102.00;;;;5071914;28;20594;-71
2022/08/01 01:22:35;;;;;;;1.63;1.50;;;25.40;55.70;24.40;101105.00;;;;5069230;28;20452;-71
2022/08/01 01:25:36;;;;;;;2.10;1.80;;;25.30;55.60;24.40;101109.00;;;;5070156;28;20066;-71
2022/08/01 01:29:01;;;;;;;2.10;1.90;;;25.30;55.60;24.40;101106.00;;;;5071517;28;20126;-71
2022/08/01 01:32:09;;;;;;;2.20;1.60;;;25.30;55.60;24.40;101109.00;;;;5059615;28;20071;-71
2022/08/01 01:34:55;;;;;;;4.00;1.95;;;25.30;55.70;24.40;101106.00;;;;5075924;28;20071;-71
2022/08/01 01:37:41;;;;;;;1.48;1.38;;;25.40;55.70;24.40;101105.00;;;;5058972;28;20271;-71
2022/08/01 01:40:28;;;;;;;4.40;1.90;;;25.30;55.60;24.40;101117.00;;;;5070402;28;20379;-71
2022/08/01 01:43:14;;;;;;;2.60;1.30;;;25.30;55.70;24.40;101115.00;;;;5053924;28;20041;-71
2022/08/01 01:46:00;;;;;;;1.90;1.45;;;25.20;55.60;24.40;101116.00;;;;5070422;28;20037;-71
2022/08/01 01:48:47;;;;;;;1.55;1.30;;;25.20;55.50;24.40;101118.00;;;;5058612;28;20109;-71
2022/08/01 01:51:33;;;;;;;3.20;1.73;;;25.30;55.50;24.40;101120.00;;;;5069989;28;20048;-71
2022/08/01 01:54:19;;;;;;;1.92;1.70;;;25.30;55.50;24.40;101114.00;;;;5066280;28;20040;-71
2022/08/01 01:57:05;;;;;;;1.67;1.40;;;25.30;55.50;24.40;101110.00;;;;5070134;28;20040;-71
2022/08/01 01:59:51;;;;;;;3.10;1.50;;;25.30;55.50;24.40;101112.00;;;;5071265;28;20036;-71
2022/08/01 02:02:37;;;;;;;1.92;1.60;;;25.30;55.50;24.40;101112.00;;;;5052223;28;20440;-71
2022/08/01 02:05:23;;;;;;;1.52;1.25;;;25.20;55.40;24.40;101114.00;;;;5071042;28;20101;-71
2022/08/01 02:08:11;;;;;;;1.83;1.55;;;25.30;55.40;24.40;101110.00;;;;5074328;28;20086;-71
2022/08/01 02:14:02;;;;;;;2.80;1.48;;;25.30;55.50;24.40;101104.00;;;;5075525;28;20051;-71
2022/08/01 02:16:49;;;;;;;4.03;1.55;;;25.30;55.40;24.40;101108.00;;;;5070233;28;20087;-71
2022/08/01 02:19:35;;;;;;;2.15;1.38;;;25.30;55.50;24.40;101102.00;;;;5085594;28;20162;-71
2022/08/01 02:22:31;;;;;;;2.05;1.40;;;25.30;55.50;24.40;101107.00;;;;5087182;28;20154;-71
2022/08/01 02:25:23;;;;;;;1.27;1.17;;;25.30;55.50;24.40;101108.00;;;;5069034;28;20033;-71
2022/08/01 02:28:17;;;;;;;1.60;1.10;;;25.40;55.50;24.40;101108.00;;;;5074804;28;20036;-71
2022/08/01 02:31:06;;;;;;;2.03;1.50;;;25.30;55.30;24.40;101113.00;;;;5060160;28;20044;-71
2022/08/01 02:34:01;;;;;;;2.05;1.40;;;25.30;56.00;24.40;101109.00;;;;5067982;28;20486;-71
2022/08/01 02:36:48;;;;;;;1.77;1.15;;;25.40;55.30;24.40;101110.00;;;;5086618;28;20051;-71
2022/08/01 02:39:34;;;;;;;1.80;1.45;;;25.30;55.40;24.40;101110.00;;;;5068784;28;20032;-71
2022/08/01 02:42:20;;;;;;;1.30;1.20;;;25.30;55.40;24.40;101104.00;;;;5069952;28;20068;-71
2022/08/01 02:45:08;;;;;;;1.50;1.40;;;25.20;55.30;24.40;101109.00;;;;5035367;28;20098;-71
2022/08/01 02:48:00;;;;;;;1.50;1.38;;;25.20;55.30;24.40;101123.00;;;;5063976;28;20043;-71
2022/08/01 02:50:48;;;;;;;1.20;1.10;;;25.30;55.40;24.40;101116.00;;;;5081916;28;20044;-71
2022/08/01 02:53:36;;;;;;;2.47;1.33;;;25.30;55.30;24.40;101123.00;;;;5087723;28;20050;-71
2022/08/01 02:56:23;;;;;;;1.52;1.27;;;25.30;55.30;24.40;101119.00;;;;5068623;28;20055;-71
2022/08/01 02:59:14;;;;;;;1.55;1.45;;;25.30;55.20;24.40;101122.00;;;;5072983;28;20046;-71
2022/08/01 03:02:00;;;;;;;1.70;0.90;;;25.30;55.30;24.40;101122.00;;;;5067212;28;20029;-71
2022/08/01 03:04:46;;;;;;;1.33;1.00;;;25.30;55.30;24.40;101124.00;;;;5056905;28;20035;-71
2022/08/01 03:07:32;;;;;;;3.10;1.35;;;25.20;55.20;24.40;101124.00;;;;5077765;28;20032;-71
2022/08/01 03:10:18;;;;;;;1.73;1.30;;;25.30;55.30;24.40;101121.00;;;;5087067;28;20044;-71
2022/08/01 03:13:06;;;;;;;1.52;1.23;;;25.30;55.40;24.40;101122.00;;;;5073209;28;20040;-71
2022/08/01 03:15:53;;;;;;;2.45;1.15;;;25.20;55.50;24.40;101117.00;;;;5073572;28;20557;-71
2022/08/01 03:18:39;;;;;;;3.42;1.80;;;25.30;55.50;24.30;101119.00;;;;5075898;28;20070;-71
2022/08/01 03:21:25;;;;;;;1.52;1.05;;;25.30;55.50;24.40;101129.00;;;;5074168;28;20399;-71
2022/08/01 03:24:11;;;;;;;1.38;1.27;;;25.20;55.40;24.40;101132.00;;;;5074804;28;20039;-71
2022/08/01 03:26:58;;;;;;;1.48;1.35;;;25.20;55.30;24.40;101124.00;;;;5072214;28;20548;-71
2022/08/01 03:29:44;;;;;;;2.33;1.30;;;25.30;55.50;24.40;101122.00;;;;5069934;28;20051;-71
2022/08/01 03:32:30;;;;;;;1.75;1.48;;;25.20;55.40;24.40;101128.00;;;;5077367;28;20497;-71
2022/08/01 03:35:17;;;;;;;1.85;1.20;;;25.20;55.50;24.30;101125.00;;;;5072024;28;20494;-71
2022/08/01 03:38:03;;;;;;;1.10;1.00;;;25.20;55.30;24.30;101126.00;;;;5059174;28;20033;-71
2022/08/01 03:41:13;;;;;;;1.98;1.23;;;25.30;55.40;24.30;101131.00;;;;5073013;28;20132;-71
2022/08/01 03:44:16;;;;;;;1.08;0.90;;;25.20;55.30;24.30;101132.00;;;;5063903;28;20052;-71
2022/08/01 03:47:05;;;;;;;1.20;1.10;;;25.20;55.30;24.30;101131.00;;;;5072189;28;20562;-71
2022/08/01 03:49:52;;;;;;;1.88;1.00;;;25.20;55.30;24.30;101131.00;;;;5070804;28;20109;-71
2022/08/01 03:52:38;;;;;;;1.60;1.10;;;25.20;55.20;24.30;101131.00;;;;5077911;28;20093;-71
2022/08/01 03:55:24;;;;;;;1.15;1.05;;;25.30;55.30;24.30;101131.00;;;;5072293;28;20089;-71
2022/08/01 03:58:10;;;;;;;1.42;0.90;;;25.20;55.30;24.30;101139.00;;;;5078033;28;20048;-71
2022/08/01 04:00:57;;;;;;;2.13;1.10;;;25.20;55.30;24.30;101137.00;;;;5072051;28;20036;-71
2022/08/01 04:03:43;;;;;;;1.60;1.20;;;25.20;55.20;24.30;101151.00;;;;5073212;28;20048;-71
2022/08/01 04:06:29;;;;;;;0.80;0.80;;;25.30;55.30;24.30;101145.00;;;;5071923;28;20075;-71
2022/08/01 04:09:15;;;;;;;2.88;1.23;;;25.20;55.20;24.30;101146.00;;;;5087829;28;20040;-71
2022/08/01 04:12:01;;;;;;;1.77;1.08;;;25.30;55.20;24.30;101146.00;;;;5069709;28;20348;-71
2022/08/01 04:14:48;;;;;;;1.10;1.00;;;25.20;55.20;24.30;101148.00;;;;5085054;28;20405;-71
2022/08/01 04:17:34;;;;;;;1.70;1.10;;;25.20;55.30;24.30;101158.00;;;;5066636;28;20044;-71
2022/08/01 04:20:20;;;;;;;1.20;1.08;;;25.20;55.20;24.30;101147.00;;;;5085361;28;20286;-71
2022/08/01 04:23:06;;;;;;;1.42;1.10;;;25.10;55.10;24.30;101155.00;;;;5091408;28;20036;-71
2022/08/01 04:25:52;;;;;;;1.50;1.13;;;25.20;55.20;24.30;101155.00;;;;5076585;28;20531;-71
2022/08/01 04:28:39;;;;;;;1.42;1.05;;;25.20;55.20;24.30;101158.00;;;;5069908;28;20051;-71
2022/08/01 04:31:25;;;;;;;1.48;1.38;;;25.20;55.70;24.30;101156.00;;;;5076840;28;20047;-71
2022/08/01 04:34:12;;;;;;;1.33;1.20;;;25.20;55.20;24.30;101166.00;;;;5071689;28;20040;-71
2022/08/01 04:36:58;;;;;;;1.20;1.07;;;25.20;55.20;24.30;101159.00;;;;5067355;28;20405;-71
2022/08/01 04:39:44;;;;;;;1.92;1.60;;;25.20;55.20;24.30;101163.00;;;;5051865;28;20123;-71
2022/08/01 04:42:32;;;;;;;2.08;1.10;;;25.20;55.80;24.30;101160.00;;;;5056641;28;20049;-71
2022/08/01 04:45:18;;;;;;;2.45;1.10;;;25.20;55.20;24.30;101173.00;;;;5060091;28;20502;-71
2022/08/01 04:48:08;;;;;;;2.13;1.23;;;25.20;55.20;24.30;101162.00;;;;5052283;28;20040;-71
2022/08/01 04:50:54;;;;;;;1.55;1.20;;;25.20;55.20;24.30;101171.00;;;;5070934;28;20071;-71
2022/08/01 04:53:41;;;;;;;2.03;1.20;;;25.20;55.20;24.30;101168.00;;;;5085920;28;20047;-71
2022/08/01 04:56:27;;;;;;;1.30;1.07;;;25.20;55.20;24.30;101178.00;;;;5070247;28;20060;-71
2022/08/01 05:02:18;;;;;;;1.40;1.17;;;25.20;55.20;24.30;101186.00;;;;5075432;28;20043;-71
2022/08/01 05:05:07;;;;;;;1.73;1.10;;;25.30;55.30;24.30;101180.00;;;;5079348;28;20089;-71
2022/08/01 05:07:53;;;;;;;2.50;1.30;;;25.20;55.20;24.30;101183.00;;;;5090348;28;20042;-71
2022/08/01 05:10:40;;;;;;;1.48;1.25;;;25.20;55.20;24.30;101181.00;;;;5083883;28;20048;-71
2022/08/01 05:13:26;;;;;;;1.40;1.10;;;25.20;55.20;24.30;101186.00;;;;5081571;28;20394;-71
2022/08/01 05:16:12;;;;;;;1.60;1.08;;;25.20;55.20;24.30;101187.00;;;;5064216;28;20045;-71
2022/08/01 05:18:58;;;;;;;1.20;1.10;;;25.20;55.30;24.30;101186.00;;;;5073364;28;20475;-71
2022/08/01 05:21:44;;;;;;;1.75;1.10;;;25.20;55.20;24.30;101189.00;;;;5078645;28;20082;-71
2022/08/01 05:24:31;;;;;;;1.88;1.10;;;25.20;55.20;24.30;101191.00;;;;5089651;28;20054;-71
2022/08/01 05:27:17;;;;;;;1.35;1.15;;;25.20;55.20;24.30;101191.00;;;;5072369;28;20044;-71
2022/08/01 05:30:04;;;;;;;3.20;1.33;;;25.20;55.20;24.30;101190.00;;;;5083149;28;20044;-71
2022/08/01 05:32:50;;;;;;;1.90;1.30;;;25.20;55.20;24.30;101197.00;;;;5083005;28;20405;-71
2022/08/01 05:35:36;;;;;;;1.45;1.05;;;25.20;55.20;24.30;101201.00;;;;5085194;28;20722;-71
2022/08/01 05:38:22;;;;;;;2.65;1.10;;;25.20;55.20;24.30;101206.00;;;;5089850;28;20161;-71
2022/08/01 05:41:08;;;;;;;1.27;1.15;;;25.20;55.20;24.30;101201.00;;;;5085885;28;20040;-71
2022/08/01 05:43:54;;;;;;;2.38;1.20;;;25.20;55.20;24.30;101202.00;;;;5055347;28;20052;-71
2022/08/01 05:46:40;;;;;;;2.55;1.13;;;25.20;55.20;24.30;101202.00;;;;5080430;28;20043;-71
2022/08/01 05:49:26;;;;;;;1.35;1.25;;;25.30;55.30;24.30;101206.00;;;;5091168;28;20036;-71
2022/08/01 05:52:13;;;;;;;2.33;1.10;;;25.20;55.30;24.30;101206.00;;;;5078803;28;20043;-71
2022/08/01 05:54:59;;;;;;;1.35;1.23;;;25.20;55.20;24.30;101206.00;;;;5088866;28;20052;-71
2022/08/01 05:57:45;;;;;;;1.20;1.08;;;25.20;55.30;24.30;101217.00;;;;5067355;28;20435;-71
2022/08/01 06:00:31;;;;;;;1.77;1.27;;;25.20;55.30;24.30;101214.00;;;;5091873;28;20043;-71
2022/08/01 06:03:18;;;;;;;1.20;1.10;;;25.20;55.30;24.30;101210.00;;;;5079843;28;20438;-71
2022/08/01 06:06:04;;;;;;;1.27;1.17;;;25.20;55.30;24.30;101219.00;;;;5073318;28;20375;-71
2022/08/01 06:08:51;;;;;;;1.88;1.08;;;25.20;55.30;24.30;101225.00;;;;5084471;28;20129;-71
2022/08/01 06:11:37;;;;;;;2.17;1.20;;;25.20;55.30;24.30;101216.00;;;;5079014;28;20045;-71
2022/08/01 06:14:23;;;;;;;1.35;1.23;;;25.20;55.30;24.30;101225.00;;;;5058450;28;20270;-71
2022/08/01 06:17:09;;;;;;;1.52;1.20;;;25.20;55.30;24.30;101223.00;;;;5071230;28;20050;-71
2022/08/01 06:19:55;;;;;;;1.38;1.27;;;25.20;55.30;24.30;101223.00;;;;5084590;28;20048;-71
2022/08/01 06:22:41;;;;;;;1.60;1.23;;;25.20;55.30;24.30;101224.00;;;;5080980;28;20059;-71
2022/08/01 06:25:27;;;;;;;1.20;1.10;;;25.20;55.30;24.30;101227.00;;;;5081684;28;20048;-71
2022/08/01 06:28:13;;;;;;;1.30;1.17;;;25.20;55.30;24.30;101228.00;;;;5086280;28;20035;-71
2022/08/01 06:31:00;;;;;;;1.50;1.25;;;25.20;55.30;24.30;101226.00;;;;5084213;28;20036;-71
2022/08/01 06:33:46;;;;;;;1.52;1.20;;;25.20;55.30;24.30;101236.00;;;;5073042;28;20037;-71
2022/08/01 06:36:32;;;;;;;1.17;1.08;;;25.20;55.30;24.30;101241.00;;;;5082084;28;20036;-71
2022/08/01 06:39:18;;;;;;;1.13;1.00;;;25.20;55.30;24.30;101239.00;;;;5081523;28;20044;-71
2022/08/01 06:42:04;;;;;;;1.27;1.17;;;25.20;55.30;24.30;101238.00;;;;5084453;28;20055;-71
2022/08/01 06:44:50;;;;;;;1.20;1.08;;;25.20;55.30;24.30;101233.00;;;;5092518;28;20044;-71
2022/08/01 06:47:37;;;;;;;1.77;1.13;;;25.20;55.20;24.30;101241.00;;;;5090167;27;20043;-71
2022/08/01 06:50:23;;;;;;;1.70;1.42;;;25.20;55.20;24.30;101242.00;;;;5072527;28;20040;-71
2022/08/01 06:53:09;;;;;;;2.97;1.25;;;25.30;55.30;24.30;101242.00;;;;5077233;28;20477;-71
2022/08/01 06:55:55;;;;;;;3.08;1.30;;;25.20;55.30;24.30;101247.00;;;;5074020;28;20127;-71
2022/08/01 06:58:41;;;;;;;1.30;1.10;;;25.20;55.30;24.30;101243.00;;;;5085823;28;20187;-71
2022/08/01 07:01:28;;;;;;;1.27;1.08;;;25.20;55.30;24.30;101242.00;;;;5072281;28;20502;-71
2022/08/01 07:04:14;;;;;;;1.93;1.23;;;25.20;55.30;24.30;101253.00;;;;5074117;28;20076;-71
2022/08/01 07:07:00;;;;;;;1.63;1.00;;;25.20;55.30;24.30;101246.00;;;;5070854;28;20170;-71
2022/08/01 07:09:46;;;;;;;2.15;1.20;;;25.20;55.30;24.30;101244.00;;;;5089808;28;20043;-71
2022/08/01 07:12:33;;;;;;;1.15;1.05;;;25.20;55.30;24.30;101239.00;;;;5088724;28;20177;-71
2022/08/01 07:15:21;;;;;;;2.28;1.23;;;25.20;55.20;24.30;101246.00;;;;5086698;28;20040;-71
2022/08/01 07:18:07;;;;;;;1.92;1.48;;;25.20;55.30;24.30;101250.00;;;;5085086;28;20032;-71
2022/08/01 07:20:53;;;;;;;1.20;1.10;;;25.10;55.20;24.30;101247.00;;;;5078196;28;20082;-71
2022/08/01 07:23:39;;;;;;;1.65;1.10;;;25.20;55.30;24.30;101243.00;;;;5072978;28;20052;-71
2022/08/01 07:26:27;;;;;;;1.08;0.98;;;25.20;55.30;24.30;101245.00;;;;5083916;28;20044;-71
2022/08/01 07:29:13;;;;;;;1.40;1.30;;;25.20;55.30;24.20;101247.00;;;;5069527;28;20044;-71
2022/08/01 07:31:59;;;;;;;1.70;1.10;;;25.20;55.30;24.30;101250.00;;;;5092513;28;20054;-71
2022/08/01 07:34:45;;;;;;;1.27;1.13;;;25.20;55.30;24.30;101254.00;;;;5080194;28;20047;-71
2022/08/01 07:37:31;;;;;;;1.38;1.27;;;25.20;55.30;24.30;101256.00;;;;5085500;28;20044;-71
2022/08/01 07:40:17;;;;;;;1.60;1.05;;;25.20;55.30;24.30;101254.00;;;;5069870;28;20111;-71
2022/08/01 07:43:04;;;;;;;1.25;1.08;;;25.20;55.30;24.30;101260.00;;;;5090577;28;20043;-71
2022/08/01 07:45:50;;;;;;;2.05;0.93;;;25.20;55.30;24.30;101269.00;;;;5087254;28;20380;-71
2022/08/01 07:48:36;;;;;;;1.25;0.80;;;25.20;55.30;24.30;101269.00;;;;5088116;28;20040;-71
2022/08/01 07:51:22;;;;;;;1.60;1.40;;;25.20;55.40;24.20;101275.00;;;;5072814;28;20109;-71
2022/08/01 07:54:08;;;;;;;0.98;0.90;;;25.20;55.40;24.30;101287.00;;;;5091156;28;20509;-71
2022/08/01 07:56:55;;;;;;;1.15;1.05;;;25.20;55.40;24.30;101285.00;;;;5074686;28;20040;-71
2022/08/01 07:59:41;;;;;;;1.92;0.85;;;25.30;55.50;24.30;101282.00;;;;5087686;28;20047;-71
2022/08/01 08:02:27;;;;;;;0.80;0.80;;;25.20;55.40;24.30;101285.00;;;;5071419;28;20027;-71
2022/08/01 08:05:13;;;;;;;1.33;0.80;;;25.20;55.40;24.30;101286.00;;;;5084203;28;20131;-71
2022/08/01 08:07:59;;;;;;;1.80;0.77;;;25.20;55.40;24.30;101301.00;;;;5090491;28;20332;-71
2022/08/01 08:10:46;;;;;;;1.52;0.85;;;25.20;55.30;24.30;101296.00;;;;5080444;28;20443;-71
2022/08/01 08:13:32;;;;;;;1.00;0.80;;;25.20;55.30;24.30;101297.00;;;;5083841;28;20074;-71
2022/08/01 08:16:18;;;;;;;0.82;0.73;;;25.20;55.40;24.30;101296.00;;;;5083853;28;20044;-71
2022/08/01 08:19:04;;;;;;;1.05;0.80;;;25.20;55.40;24.30;101302.00;;;;5077307;28;20040;-71
2022/08/01 08:21:50;;;;;;;0.70;0.65;;;25.20;55.40;24.30;101298.00;;;;5064855;28;20375;-71
2022/08/01 08:24:36;;;;;;;1.38;0.60;;;25.20;55.30;24.30;101298.00;;;;5087867;28;20056;-71
2022/08/01 08:27:22;;;;;;;1.45;0.70;;;25.20;55.30;24.30;101303.00;;;;5070875;28;20150;-71
2022/08/01 08:30:10;;;;;;;2.08;0.65;;;25.20;55.30;24.30;101306.00;;;;5079921;28;20044;-71
2022/08/01 08:32:56;;;;;;;1.05;0.55;;;25.20;55.30;24.30;101313.00;;;;5079598;28;20458;-71
2022/08/01 08:35:43;;;;;;;1.00;0.63;;;25.20;55.30;24.30;101315.00;;;;5070682;28;20044;-71
2022/08/01 08:38:29;;;;;;;1.45;0.60;;;25.20;55.30;24.30;101311.00;;;;5075848;28;20052;-71
2022/08/01 08:41:15;;;;;;;1.75;0.85;;;25.20;55.20;24.20;101314.00;;;;5086718;28;20043;-71
2022/08/01 08:44:02;;;;;;;2.00;0.60;;;25.20;55.20;24.30;101318.00;;;;5085119;28;20048;-71
2022/08/01 08:46:55;;;;;;;;;;;25.20;55.10;24.20;101325.00;;;;5086924;28;20119;-71
2022/08/01 08:49:44;;;;;;;1.67;0.57;;;25.30;55.20;24.20;101326.00;;;;5080185;28;20267;-71
2022/08/01 08:52:30;;;;;;;0.82;0.50;;;25.20;55.10;24.20;101325.00;;;;5065393;28;20398;-71
2022/08/01 08:55:17;;;;;;;2.15;0.60;;;25.20;55.00;24.20;101329.00;;;;5068574;28;20045;-71
2022/08/01 08:58:05;;;;;;;1.67;0.60;;;25.20;55.00;24.20;101324.00;;;;5075364;28;20101;-71
2022/08/01 09:00:53;;;;;;;0.40;0.40;;;25.20;55.00;24.20;101327.00;;;;5071496;28;20035;-71
2022/08/01 09:03:40;;;;;;;0.73;0.45;;;25.20;55.00;24.20;101324.00;;;;5070521;28;20062;-72
2022/08/01 09:06:26;;;;;;;1.20;0.65;;;25.20;55.10;24.20;101326.00;;;;5072731;28;20139;-71
2022/08/01 09:09:12;;;;;;;0.35;0.30;;;25.10;55.00;24.20;101323.00;;;;5071851;28;20037;-71
2022/08/01 09:11:58;;;;;;;0.95;0.63;;;25.20;55.00;24.20;101327.00;;;;5081134;28;20130;-71
2022/08/01 09:14:45;;;;;;;2.00;0.57;;;25.20;55.00;24.30;101327.00;;;;5076523;28;20127;-71
2022/08/01 09:17:42;;;;;;;1.45;0.40;;;25.20;55.00;24.20;101337.00;;;;5083889;28;20035;-71
2022/08/01 09:20:28;;;;;;;2.10;0.50;;;25.20;54.90;24.30;101334.00;;;;5070889;28;20036;-71
2022/08/01 09:23:42;;;;;;;1.77;0.65;;;25.20;54.90;24.20;101342.00;;;;5074681;28;20051;-71
2022/08/01 09:26:31;;;;;;;0.90;0.47;;;25.20;54.90;24.20;101344.00;;;;5075535;28;20479;-71
2022/08/01 09:29:23;;;;;;;1.90;0.55;;;25.20;54.90;24.20;101350.00;;;;5062777;28;20032;-71
2022/08/01 09:32:09;;;;;;;0.65;0.40;;;25.20;54.90;24.20;101351.00;;;;5060300;28;20112;-71
2022/08/01 09:34:55;;;;;;;2.03;0.55;;;25.30;55.00;24.20;101356.00;;;;5086604;28;20424;-71
2022/08/01 09:37:42;;;;;;;1.75;0.73;;;25.30;54.90;24.30;101360.00;;;;5080960;28;20516;-71
2022/08/01 09:40:54;;;;;;;1.13;0.57;;;25.10;54.80;24.20;101359.00;;;;5080212;28;20520;-71
2022/08/01 09:43:41;;;;;;;1.02;0.60;;;25.20;54.90;24.20;101363.00;;;;5079677;28;20404;-71
2022/08/01 09:46:27;;;;;;;0.95;0.40;;;25.20;54.80;24.20;101366.00;;;;5064040;28;20040;-71
2022/08/01 09:49:13;;;;;;;1.38;0.68;;;25.20;54.80;24.20;101364.00;;;;5085704;28;20071;-71
2022/08/01 09:52:09;;;;;;;1.38;0.77;;;25.20;54.80;24.30;101365.00;;;;5053119;28;20076;-71
2022/08/01 09:55:00;;;;;;;1.05;0.60;;;25.20;54.90;24.30;101375.00;;;;5070351;28;20050;-71
2022/08/01 09:57:57;;;;;;;1.15;0.70;;;25.20;54.80;24.30;101371.00;;;;5069374;28;20462;-71
2022/08/01 10:00:43;;;;;;;3.30;0.80;;;25.10;54.70;24.30;101372.00;;;;5068876;28;20428;-71
2022/08/01 10:03:30;;;;;;;1.83;0.70;;;25.30;54.80;24.30;101364.00;;;;5059174;28;20062;-71
2022/08/01 10:06:20;;;;;;;2.70;0.73;;;25.20;54.80;24.30;101372.00;;;;5084308;28;20465;-71
2022/08/01 10:09:06;;;;;;;1.80;0.77;;;25.20;54.80;24.30;101369.00;;;;5085590;28;20036;-71
2022/08/01 10:11:52;;;;;;;1.80;0.75;;;25.30;54.80;24.30;101370.00;;;;5082488;28;20374;-71
2022/08/01 10:14:38;;;;;;;1.88;0.70;;;25.20;54.70;24.30;101373.00;;;;5069449;28;20052;-71
2022/08/01 10:17:25;;;;;;;2.05;0.80;;;25.20;54.70;24.30;101382.00;;;;5085860;28;20036;-71
2022/08/01 10:20:11;;;;;;;1.67;0.77;;;25.30;55.40;24.30;101376.00;;;;5068021;28;20083;-71
2022/08/01 10:23:02;;;;;;;2.05;0.80;;;25.20;54.60;24.30;101381.00;;;;5071436;28;20048;-71
2022/08/01 10:25:48;;;;;;;1.35;0.70;;;25.30;54.70;24.30;101378.00;;;;5073017;28;20369;-71
2022/08/01 10:28:35;;;;;;;0.65;0.50;;;25.20;54.60;24.30;101379.00;;;;5070241;28;20040;-71
2022/08/01 10:31:21;;;;;;;1.70;0.73;;;25.20;54.50;24.30;101375.00;;;;5056585;28;20041;-71
2022/08/01 10:34:09;;;;;;;1.45;0.88;;;25.30;54.50;24.30;101381.00;;;;5062290;28;20035;-71
2022/08/01 10:36:55;;;;;;;2.50;1.05;;;25.30;54.50;24.30;101386.00;;;;5070343;28;20036;-71
2022/08/01 10:39:41;;;;;;;1.05;0.75;;;25.30;54.50;24.30;101386.00;;;;5064461;28;20048;-71
2022/08/01 10:42:27;;;;;;;2.30;0.80;;;25.30;54.50;24.30;101386.00;;;;5088064;28;20043;-71
2022/08/01 10:45:14;;;;;;;1.15;0.82;;;25.30;54.40;24.30;101396.00;;;;5074180;28;20699;-71
2022/08/01 10:48:16;;;;;;;1.30;0.65;;;25.40;54.40;24.30;101394.00;;;;5091831;28;20089;-71
2022/08/01 10:51:04;;;;;;;0.93;0.82;;;25.20;54.30;24.30;101394.00;;;;5057872;28;20123;-71
2022/08/01 10:53:52;;;;;;;1.13;0.70;;;25.30;54.20;24.30;101391.00;;;;5085864;28;20047;-71
2022/08/01 10:56:46;;;;;;;2.22;0.70;;;25.30;54.20;24.30;101400.00;;;;5077438;28;20055;-71
2022/08/01 10:59:33;;;;;;;2.10;0.68;;;25.30;54.20;24.30;101399.00;;;;5076396;28;20043;-71
2022/08/01 11:02:28;;;;;;;1.92;0.90;;;25.30;54.20;24.30;101401.00;;;;5070905;28;20595;-71
2022/08/01 11:05:20;;;;;;;1.65;0.85;;;25.20;54.00;24.30;101399.00;;;;5068298;28;20548;-71
2022/08/01 11:08:11;;;;;;;0.93;0.82;;;25.30;54.00;24.30;101391.00;;;;5074858;28;20071;-71
2022/08/01 11:11:01;;;;;;;1.13;0.73;;;25.30;54.10;24.30;101397.00;;;;5069784;28;20131;-71
2022/08/01 11:14:12;;;;;;;1.55;0.70;;;25.20;53.80;24.30;101401.00;;;;5072020;28;20075;-71
2022/08/01 11:17:32;;;;;;;1.67;0.70;;;25.20;53.80;24.30;101394.00;;;;5080422;28;20040;-71
2022/08/01 11:20:24;;;;;;;1.15;0.77;;;25.30;53.80;24.30;101405.00;;;;5055441;28;20044;-71
2022/08/01 11:23:12;;;;;;;1.25;0.75;;;25.30;53.80;24.30;101411.00;;;;5076921;28;20552;-71
2022/08/01 11:26:01;;;;;;;1.10;0.90;;;25.30;53.80;24.30;101409.00;;;;5084245;28;20048;-71
2022/08/01 11:29:14;;;;;;;1.92;0.80;;;25.30;53.70;24.30;101407.00;;;;5088725;28;20035;-71
2022/08/01 11:32:23;;;;;;;1.35;0.80;;;25.30;53.60;24.30;101408.00;;;;5065587;28;20484;-71
2022/08/01 11:35:09;;;;;;;1.80;0.95;;;25.30;53.50;24.30;101400.00;;;;5084569;28;20044;-71
2022/08/01 11:37:56;;;;;;;2.33;0.90;;;25.30;53.30;24.30;101400.00;;;;5084747;28;20121;-71
2022/08/01 11:40:42;;;;;;;1.85;0.70;;;25.30;53.30;24.30;101392.00;;;;5089034;28;20044;-71
2022/08/01 11:43:28;;;;;;;2.88;0.70;;;25.30;53.30;24.30;101401.00;;;;5074862;28;20130;-71
2022/08/01 11:46:14;;;;;;;2.67;0.65;;;25.30;53.20;24.30;101400.00;;;;5084034;28;20401;-71
2022/08/01 11:49:26;;;;;;;2.20;0.98;;;25.30;53.00;24.30;101403.00;;;;5057554;28;20085;-70
2022/08/01 11:52:29;;;;;;;3.13;1.00;;;25.30;53.10;24.30;101403.00;;;;5086407;28;20082;-71
2022/08/01 11:55:15;;;;;;;1.95;0.90;;;25.30;53.00;24.30;101412.00;;;;5073961;28;20056;-71
2022/08/01 11:58:05;;;;;;;1.83;0.85;;;25.30;53.00;24.30;101398.00;;;;5062837;28;20082;-71
2022/08/01 12:00:53;;;;;;;3.97;0.95;;;25.30;52.90;24.30;101402.00;;;;5068050;28;20044;-71
2022/08/01 12:03:39;;;;;;;5.22;1.67;;;25.30;52.90;24.30;101399.00;;;;5082761;28;20047;-71
2022/08/01 12:06:29;;;;;;;2.45;1.08;;;25.30;53.00;24.30;101400.00;;;;5089026;28;20036;-71
2022/08/01 12:09:21;;;;;;;2.70;1.00;;;25.30;52.80;24.30;101402.00;;;;5088346;28;20808;-70
2022/08/01 12:12:07;;;;;;;4.05;0.95;;;25.40;52.90;24.30;101406.00;;;;5066262;28;20102;-71
2022/08/01 12:15:02;;;;;;;2.50;0.90;;;25.40;52.80;24.30;101400.00;;;;5072689;28;20047;-70
2022/08/01 12:17:56;;;;;;;5.22;1.00;;;25.40;52.70;24.30;101398.00;;;;5089068;28;20066;-71
2022/08/01 12:20:45;;;;;;;2.50;1.15;;;25.40;52.70;24.30;101396.00;;;;5086539;28;20044;-70
2022/08/01 12:23:31;;;;;;;4.93;0.80;;;25.40;52.60;24.30;101411.00;;;;5072641;28;20044;-71
2022/08/01 12:26:17;;;;;;;2.75;1.33;;;25.30;52.60;24.30;101411.00;;;;5088512;28;20044;-71
2022/08/01 12:29:03;;;;;;;3.25;1.15;;;25.40;52.40;24.30;101411.00;;;;5076173;28;20039;-70